Time;durP1;ratioP1;P1;durP2;ratioP2;P2;SDS_P1;SDS_P2;PMS_P1;PMS_P2;Temp;Humidity;BMP_temperature;BMP_pressure;BME280_temperature;BME280_humidity;BME280_pressure;Samples;Min_cycle;Max_cycle;Signal;HPM_P1;HPM_P2
2022/04/02 00:00:45;;;;;;;8.27;7.47;;;;;;;;;;5058029;28;20447;-76
2022/04/02 00:03:13;;;;;;;8.10;7.40;;;;;;;;;;5048170;28;20075;-74
2022/04/02 00:05:41;;;;;;;11.88;7.60;;;;;;;;;;5068698;28;20048;-77
2022/04/02 00:08:08;;;;;;;9.85;7.10;;;;;;;;;;5039774;28;20070;-75
2022/04/02 00:10:39;;;;;;;8.55;7.38;;;;;;;;;;5065078;28;20136;-76
2022/04/02 00:13:07;;;;;;;10.85;7.70;;;;;;;;;;5055857;28;20068;-75
2022/04/02 00:15:34;;;;;;;7.32;6.63;;;;;;;;;;5065183;28;20067;-75
2022/04/02 00:18:01;;;;;;;10.63;8.23;;;;;;;;;;5073957;22;1104248;-77
2022/04/02 00:20:29;;;;;;;9.23;6.55;;;;;;;;;;5056825;28;20052;-77
2022/04/02 00:25:43;;;;;;;11.65;8.32;;;;;;;;;;5039226;28;20052;-78
2022/04/02 00:28:10;;;;;;;11.00;8.30;;;;;;;;;;5060062;28;20052;-77
2022/04/02 00:30:40;;;;;;;8.82;7.93;;;;;;;;;;5044389;28;20040;-77
2022/04/02 00:33:08;;;;;;;9.95;8.95;;;;;;;;;;5046035;28;20052;-77
2022/04/02 00:35:35;;;;;;;9.30;7.78;;;;;;;;;;5060835;28;20044;-77
2022/04/02 00:38:03;;;;;;;11.57;8.10;;;;;;;;;;5045163;28;20049;-77
2022/04/02 00:40:30;;;;;;;9.85;7.40;;;;;;;;;;5044464;28;20490;-77
2022/04/02 00:42:58;;;;;;;8.73;7.60;;;;;;;;;;5049487;28;20041;-77
2022/04/02 00:45:25;;;;;;;10.50;8.95;;;;;;;;;;5044563;28;20041;-77
2022/04/02 00:47:52;;;;;;;16.88;9.18;;;;;;;;;;5037751;28;20048;-77
2022/04/02 00:50:20;;;;;;;12.60;8.77;;;;;;;;;;5045061;28;20044;-77
2022/04/02 00:52:49;;;;;;;17.60;10.30;;;;;;;;;;5053771;28;20772;-77
2022/04/02 00:55:16;;;;;;;13.60;9.13;;;;;;;;;;5045387;28;20476;-77
2022/04/02 00:57:44;;;;;;;10.60;8.35;;;;;;;;;;5043644;28;20041;-77
2022/04/02 01:00:13;;;;;;;16.15;9.60;;;;;;;;;;5040233;28;20403;-77
2022/04/02 01:02:41;;;;;;;13.63;10.05;;;;;;;;;;5053796;28;20132;-77
2022/04/02 01:05:09;;;;;;;9.98;7.80;;;;;;;;;;5054961;28;20128;-77
2022/04/02 01:07:37;;;;;;;13.82;10.27;;;;;;;;;;5044877;28;20042;-77
2022/04/02 01:10:04;;;;;;;11.60;8.35;;;;;;;;;;5047686;28;20056;-77
2022/04/02 01:12:33;;;;;;;12.10;10.15;;;;;;;;;;5059469;28;20043;-77
2022/04/02 01:15:01;;;;;;;9.40;8.38;;;;;;;;;;5046105;28;20481;-77
2022/04/02 01:17:41;;;;;;;14.40;10.07;;;;;;;;;;5040449;28;20044;-77
2022/04/02 01:20:19;;;;;;;18.95;10.15;;;;;;;;;;5043414;28;20099;-77
2022/04/02 01:22:52;;;;;;;13.95;9.02;;;;;;;;;;5030583;28;20049;-77
2022/04/02 01:25:20;;;;;;;10.18;7.60;;;;;;;;;;5055382;28;20043;-77
2022/04/02 01:27:50;;;;;;;12.77;10.02;;;;;;;;;;5043550;28;20404;-77
2022/04/02 01:30:18;;;;;;;13.23;9.38;;;;;;;;;;5047021;28;20049;-77
2022/04/02 01:32:46;;;;;;;13.18;10.48;;;;;;;;;;5063196;28;20120;-77
2022/04/02 01:35:14;;;;;;;11.32;10.02;;;;;;;;;;5042240;28;20053;-77
2022/04/02 01:37:52;;;;;;;14.18;9.20;;;;;;;;;;5061067;28;20040;-77
2022/04/02 01:40:23;;;;;;;13.45;9.38;;;;;;;;;;5063257;28;20515;-77
2022/04/02 01:42:51;;;;;;;13.35;10.40;;;;;;;;;;5044806;28;20116;-77
2022/04/02 01:45:19;;;;;;;16.67;8.73;;;;;;;;;;5028305;28;20095;-77
2022/04/02 01:48:02;;;;;;;8.90;7.72;;;;;;;;;;5055049;28;20059;-77
2022/04/02 01:50:40;;;;;;;12.10;9.77;;;;;;;;;;5042918;28;20041;-77
2022/04/02 01:53:07;;;;;;;16.35;9.75;;;;;;;;;;5063485;28;20056;-77
2022/04/02 01:55:34;;;;;;;15.35;9.52;;;;;;;;;;5047976;28;20503;-77
2022/04/02 01:58:18;;;;;;;17.17;11.07;;;;;;;;;;5045874;28;20042;-77
2022/04/02 02:00:47;;;;;;;11.70;8.88;;;;;;;;;;5061733;28;20563;-77
2022/04/02 02:03:18;;;;;;;10.50;8.68;;;;;;;;;;5045964;28;20087;-77
2022/04/02 02:05:47;;;;;;;12.60;10.70;;;;;;;;;;5046099;28;20040;-77
2022/04/02 02:08:16;;;;;;;18.15;10.27;;;;;;;;;;5038425;28;20045;-77
2022/04/02 02:10:57;;;;;;;14.82;10.65;;;;;;;;;;5026918;28;20049;-77
2022/04/02 02:13:37;;;;;;;13.13;8.27;;;;;;;;;;5035945;28;20557;-77
2022/04/02 02:16:10;;;;;;;19.92;11.55;;;;;;;;;;5061999;28;20056;-77
2022/04/02 02:18:37;;;;;;;15.63;10.65;;;;;;;;;;5054207;28;20136;-77
2022/04/02 02:21:05;;;;;;;14.45;10.52;;;;;;;;;;5061980;28;20049;-77
2022/04/02 02:23:32;;;;;;;13.32;10.27;;;;;;;;;;5047317;28;20396;-77
2022/04/02 02:26:03;;;;;;;16.83;10.57;;;;;;;;;;5047624;28;20127;-77
2022/04/02 02:28:30;;;;;;;15.50;10.77;;;;;;;;;;5045721;28;20069;-77
2022/04/02 02:30:59;;;;;;;16.70;11.15;;;;;;;;;;5042740;28;20037;-77
2022/04/02 02:36:17;;;;;;;15.57;11.27;;;;;;;;;;5062515;28;20109;-77
2022/04/02 02:39:11;;;;;;;15.98;10.25;;;;;;;;;;5045294;28;20057;-77
2022/04/02 02:41:45;;;;;;;16.60;11.13;;;;;;;;;;5047868;28;20060;-77
2022/04/02 02:44:25;;;;;;;18.17;10.00;;;;;;;;;;5027712;28;20049;-77
2022/04/02 02:47:06;;;;;;;18.27;11.53;;;;;;;;;;5034667;28;20049;-77
2022/04/02 02:49:37;;;;;;;16.95;11.38;;;;;;;;;;5029915;28;20049;-77
2022/04/02 02:52:08;;;;;;;16.70;10.75;;;;;;;;;;5062995;28;20496;-77
2022/04/02 02:54:36;;;;;;;12.20;9.82;;;;;;;;;;5061639;28;20075;-77
2022/04/02 02:57:05;;;;;;;17.92;10.45;;;;;;;;;;5047082;28;20126;-77
2022/04/02 02:59:34;;;;;;;13.55;10.35;;;;;;;;;;5046241;28;20045;-77
2022/04/02 03:02:03;;;;;;;17.38;10.02;;;;;;;;;;5032033;28;20494;-77
2022/04/02 03:04:33;;;;;;;22.50;11.13;;;;;;;;;;5076008;22;20041;31
2022/04/02 03:07:09;;;;;;;18.23;11.00;;;;;;;;;;5016008;28;20053;-79
2022/04/02 03:09:40;;;;;;;17.88;10.75;;;;;;;;;;5027730;28;20037;-80
2022/04/02 03:12:10;;;;;;;16.15;10.75;;;;;;;;;;5023361;28;20037;-78
2022/04/02 03:14:39;;;;;;;15.37;10.17;;;;;;;;;;5010147;28;20081;-77
2022/04/02 03:17:07;;;;;;;14.40;11.10;;;;;;;;;;5015470;28;20033;-76
2022/04/02 03:19:36;;;;;;;15.70;11.60;;;;;;;;;;4999003;28;20111;-80
2022/04/02 03:22:04;;;;;;;18.67;11.30;;;;;;;;;;4999823;28;20061;-78
2022/04/02 03:24:31;;;;;;;22.38;10.70;;;;;;;;;;5016208;28;20052;-80
2022/04/02 03:27:04;;;;;;;18.05;10.93;;;;;;;;;;4984038;28;20413;-77
2022/04/02 03:29:38;;;;;;;20.13;11.02;;;;;;;;;;4999875;28;20132;-78
2022/04/02 03:32:11;;;;;;;23.52;11.63;;;;;;;;;;5014634;28;20053;-79
2022/04/02 03:34:39;;;;;;;16.75;11.60;;;;;;;;;;4998292;28;20059;-79
2022/04/02 03:37:07;;;;;;;16.50;11.13;;;;;;;;;;5015156;28;20044;-79
2022/04/02 03:39:39;;;;;;;15.02;9.82;;;;;;;;;;5005059;28;20041;-78
2022/04/02 03:42:09;;;;;;;16.63;10.40;;;;;;;;;;5014770;28;20511;-76
2022/04/02 03:44:38;;;;;;;21.45;11.88;;;;;;;;;;4983521;28;20046;-77
2022/04/02 03:47:08;;;;;;;19.20;11.57;;;;;;;;;;5006610;28;20049;-77
2022/04/02 03:49:54;;;;;;;23.35;12.10;;;;;;;;;;5023166;28;20114;-79
2022/04/02 03:52:36;;;;;;;18.50;12.30;;;;;;;;;;5010471;28;20038;-78
2022/04/02 03:55:09;;;;;;;17.33;9.52;;;;;;;;;;5012255;28;20049;-77
2022/04/02 03:57:39;;;;;;;21.33;11.40;;;;;;;;;;5011298;28;20068;-80
2022/04/02 04:00:09;;;;;;;14.55;10.60;;;;;;;;;;5009196;28;20046;-77
2022/04/02 04:02:41;;;;;;;15.75;12.32;;;;;;;;;;4979881;28;20045;-79
2022/04/02 04:05:14;;;;;;;27.70;11.77;;;;;;;;;;5009680;28;20045;-79
2022/04/02 04:07:44;;;;;;;14.90;10.32;;;;;;;;;;5028255;28;20055;-80
2022/04/02 04:10:12;;;;;;;22.90;13.90;;;;;;;;;;5007204;28;20570;-80
2022/04/02 04:12:47;;;;;;;14.93;10.20;;;;;;;;;;5003447;28;20050;-78
2022/04/02 04:15:16;;;;;;;19.90;13.15;;;;;;;;;;4975398;28;20060;-79
2022/04/02 04:17:45;;;;;;;19.17;11.52;;;;;;;;;;5010478;28;20127;-76
2022/04/02 04:20:14;;;;;;;22.13;13.15;;;;;;;;;;5011652;28;20105;-80
2022/04/02 04:22:41;;;;;;;18.60;12.15;;;;;;;;;;5021413;28;20120;-77
2022/04/02 04:25:12;;;;;;;20.98;13.20;;;;;;;;;;4992921;28;20038;-78
2022/04/02 04:27:44;;;;;;;27.08;13.75;;;;;;;;;;4998449;28;20042;-76
2022/04/02 04:30:13;;;;;;;22.70;13.18;;;;;;;;;;5026448;28;20071;-79
2022/04/02 04:32:41;;;;;;;21.65;13.57;;;;;;;;;;4990458;28;20322;-79
2022/04/02 04:35:10;;;;;;;14.82;12.10;;;;;;;;;;4994373;28;20132;-76
2022/04/02 04:37:37;;;;;;;23.63;12.90;;;;;;;;;;5024754;28;20056;-79
2022/04/02 04:40:26;;;;;;;15.07;12.05;;;;;;;;;;5003249;28;20490;-78
2022/04/02 04:42:56;;;;;;;15.70;11.23;;;;;;;;;;4988532;28;20050;-78
2022/04/02 04:45:34;;;;;;;20.60;11.80;;;;;;;;;;4979675;28;20053;-80
2022/04/02 04:48:03;;;;;;;20.83;12.73;;;;;;;;;;5004328;28;20087;-80
2022/04/02 04:50:36;;;;;;;16.17;12.70;;;;;;;;;;4997627;28;20045;-78
2022/04/02 04:53:10;;;;;;;;;;;;;;;;;;4994455;28;20076;-79
2022/04/02 04:55:38;;;;;;;12.60;10.38;;;;;;;;;;4992713;28;19929;-80
2022/04/02 04:58:06;;;;;;;17.38;12.20;;;;;;;;;;4988021;28;20198;-78
2022/04/02 05:00:34;;;;;;;14.27;9.52;;;;;;;;;;5004738;28;20049;-80
2022/04/02 05:03:03;;;;;;;15.73;11.85;;;;;;;;;;4995078;28;20567;-78
2022/04/02 05:05:41;;;;;;;17.58;12.13;;;;;;;;;;4991756;28;20052;-79
2022/04/02 05:08:14;;;;;;;14.32;10.23;;;;;;;;;;4985595;28;20053;-77
2022/04/02 05:10:43;;;;;;;16.55;11.35;;;;;;;;;;4968409;28;20053;-77
2022/04/02 05:13:20;;;;;;;18.50;11.23;;;;;;;;;;5003684;28;20065;-80
2022/04/02 05:15:54;;;;;;;14.27;11.95;;;;;;;;;;4971951;28;20100;-76
2022/04/02 05:18:23;;;;;;;;;;;;;;;;;;5022821;28;20083;-77
2022/04/02 05:20:54;;;;;;;17.85;11.27;;;;;;;;;;5001357;28;19932;-78
2022/04/02 05:23:22;;;;;;;16.17;11.68;;;;;;;;;;5004448;28;20087;-80
2022/04/02 05:25:56;;;;;;;15.68;11.48;;;;;;;;;;4974349;28;20045;-77
2022/04/02 05:28:29;;;;;;;16.10;11.38;;;;;;;;;;5008901;28;20052;-80
2022/04/02 05:30:57;;;;;;;15.07;10.82;;;;;;;;;;5010499;28;20033;-78
2022/04/02 05:33:24;;;;;;;15.75;10.68;;;;;;;;;;5024632;28;20037;-78
2022/04/02 05:36:09;;;;;;;16.92;10.40;;;;;;;;;;4986877;28;20068;-77
2022/04/02 05:38:36;;;;;;;16.88;10.05;;;;;;;;;;5000124;28;20153;-80
2022/04/02 05:41:03;;;;;;;18.45;10.57;;;;;;;;;;5006712;28;20544;-79
2022/04/02 05:43:31;;;;;;;12.35;8.48;;;;;;;;;;4991430;28;20048;-79
2022/04/02 05:46:03;;;;;;;14.70;9.90;;;;;;;;;;5009994;28;20061;-80
2022/04/02 05:48:31;;;;;;;15.95;10.73;;;;;;;;;;4979226;28;20045;-80
2022/04/02 05:50:58;;;;;;;13.65;10.40;;;;;;;;;;5025780;28;20034;-80
2022/04/02 05:53:26;;;;;;;19.05;9.77;;;;;;;;;;5009580;28;20045;-77
2022/04/02 05:55:53;;;;;;;14.93;10.75;;;;;;;;;;5005565;28;20113;-80
2022/04/02 05:58:20;;;;;;;17.90;10.93;;;;;;;;;;5028246;28;20081;-79
2022/04/02 06:00:49;;;;;;;15.32;10.63;;;;;;;;;;4992439;28;20057;-79
2022/04/02 06:03:19;;;;;;;13.27;10.43;;;;;;;;;;4997303;28;20560;-80
2022/04/02 06:05:50;;;;;;;17.38;9.07;;;;;;;;;;5005638;28;20053;-81
2022/04/02 06:08:19;;;;;;;18.00;9.70;;;;;;;;;;5006289;28;20416;-81
2022/04/02 06:10:47;;;;;;;14.05;8.80;;;;;;;;;;4992872;28;20053;-78
2022/04/02 06:13:14;;;;;;;12.38;7.90;;;;;;;;;;5012255;28;20041;-77
2022/04/02 06:15:42;;;;;;;14.80;8.75;;;;;;;;;;5001002;28;20045;-76
2022/04/02 06:18:17;;;;;;;15.05;8.00;;;;;;;;;;5022696;28;20310;-81
2022/04/02 06:20:45;;;;;;;12.93;8.88;;;;;;;;;;5004745;28;20103;-77
2022/04/02 06:23:13;;;;;;;16.17;8.55;;;;;;;;;;5010005;28;20208;-78
2022/04/02 06:25:41;;;;;;;17.10;8.77;;;;;;;;;;5010715;28;20177;-77
2022/04/02 06:28:09;;;;;;;16.15;7.85;;;;;;;;;;4996527;28;20034;-80
2022/04/02 06:30:36;;;;;;;13.88;8.35;;;;;;;;;;5022801;28;20394;-81
2022/04/02 06:33:05;;;;;;;13.43;7.63;;;;;;;;;;5017942;28;20045;-76
2022/04/02 06:35:33;;;;;;;13.18;8.55;;;;;;;;;;5024316;28;20326;-79
2022/04/02 06:38:00;;;;;;;10.40;7.70;;;;;;;;;;5010531;28;20056;-79
2022/04/02 06:40:28;;;;;;;11.48;7.90;;;;;;;;;;4996409;28;20057;-77
2022/04/02 06:42:58;;;;;;;12.13;7.65;;;;;;;;;;5028517;28;20416;-80
2022/04/02 06:45:43;;;;;;;14.80;7.85;;;;;;;;;;5007778;28;20553;-80
2022/04/02 06:48:11;;;;;;;14.57;8.90;;;;;;;;;;4994521;28;20029;-78
2022/04/02 06:50:38;;;;;;;17.33;9.98;;;;;;;;;;5013962;28;20045;-77
2022/04/02 06:53:13;;;;;;;17.67;9.13;;;;;;;;;;5029634;28;20642;-78
2022/04/02 06:55:41;;;;;;;16.08;8.93;;;;;;;;;;4994774;28;20072;-78
2022/04/02 06:58:17;;;;;;;20.08;9.05;;;;;;;;;;5011524;28;20052;-77
2022/04/02 07:00:44;;;;;;;14.02;8.15;;;;;;;;;;5006399;28;20201;-80
2022/04/02 07:03:12;;;;;;;12.10;8.18;;;;;;;;;;5011820;28;20469;-80
2022/04/02 07:05:40;;;;;;;17.70;9.05;;;;;;;;;;4991991;28;20586;-77
2022/04/02 07:08:07;;;;;;;15.38;8.55;;;;;;;;;;5028074;28;20045;-79
2022/04/02 07:10:35;;;;;;;16.05;9.43;;;;;;;;;;5020799;28;20068;-79
2022/04/02 07:13:02;;;;;;;16.13;9.40;;;;;;;;;;5039590;28;20116;-77
2022/04/02 07:15:29;;;;;;;14.35;9.25;;;;;;;;;;5008252;28;20141;-80
2022/04/02 07:17:57;;;;;;;12.73;9.02;;;;;;;;;;5025323;28;20049;-77
2022/04/02 07:20:27;;;;;;;17.65;9.30;;;;;;;;;;5009668;28;20456;-81
2022/04/02 07:22:56;;;;;;;19.05;9.52;;;;;;;;;;5012551;28;20156;-77
2022/04/02 07:25:23;;;;;;;10.57;7.65;;;;;;;;;;4994669;28;20061;-79
2022/04/02 07:27:51;;;;;;;15.85;9.55;;;;;;;;;;5010135;28;20498;-81
2022/04/02 07:30:19;;;;;;;13.98;8.88;;;;;;;;;;4994322;28;20049;-78
2022/04/02 07:32:47;;;;;;;15.75;9.50;;;;;;;;;;5030166;28;20107;-78
2022/04/02 07:35:15;;;;;;;14.90;9.90;;;;;;;;;;5011263;28;20370;-79
2022/04/02 07:37:53;;;;;;;10.90;7.97;;;;;;;;;;5008557;28;20563;-78
2022/04/02 07:40:25;;;;;;;13.35;8.90;;;;;;;;;;5024958;28;20487;-78
2022/04/02 07:43:18;;;;;;;13.75;9.52;;;;;;;;;;5006457;28;20625;-79
2022/04/02 07:45:45;;;;;;;14.73;8.88;;;;;;;;;;5019889;28;20563;-77
2022/04/02 07:48:15;;;;;;;12.18;7.80;;;;;;;;;;5007089;28;20041;-78
2022/04/02 07:50:44;;;;;;;15.68;9.05;;;;;;;;;;5022634;28;20048;-77
2022/04/02 07:53:15;;;;;;;15.40;8.95;;;;;;;;;;5022479;28;20053;-78
2022/04/02 07:55:43;;;;;;;12.93;7.63;;;;;;;;;;5020949;28;20053;-77
2022/04/02 07:58:12;;;;;;;15.90;7.15;;;;;;;;;;5023983;28;20108;-77
2022/04/02 08:00:39;;;;;;;16.42;6.35;;;;;;;;;;5004411;28;20421;-78
2022/04/02 08:03:09;;;;;;;9.18;7.10;;;;;;;;;;5023782;28;20096;-78
2022/04/02 08:05:37;;;;;;;11.63;6.82;;;;;;;;;;4988661;28;20045;-78
2022/04/02 08:08:07;;;;;;;7.50;6.15;;;;;;;;;;5033665;28;20029;-79
2022/04/02 08:10:44;;;;;;;9.40;6.60;;;;;;;;;;5000451;28;20068;-79
2022/04/02 08:13:15;;;;;;;9.38;5.88;;;;;;;;;;5000767;28;20401;-79
2022/04/02 08:15:45;;;;;;;9.48;6.82;;;;;;;;;;4989629;28;20152;-79
2022/04/02 08:18:17;;;;;;;13.77;7.30;;;;;;;;;;5003956;28;20056;-79
2022/04/02 08:20:46;;;;;;;10.45;6.45;;;;;;;;;;5019188;28;20145;-79
2022/04/02 08:23:14;;;;;;;9.95;6.78;;;;;;;;;;5023703;28;20049;-79
2022/04/02 08:25:47;;;;;;;7.57;6.28;;;;;;;;;;5004333;28;20907;-79
2022/04/02 08:28:19;;;;;;;11.15;6.65;;;;;;;;;;5023889;28;20041;-80
2022/04/02 08:31:10;;;;;;;13.00;7.25;;;;;;;;;;5006189;28;20145;-79
2022/04/02 08:33:47;;;;;;;13.23;9.00;;;;;;;;;;4981719;28;20298;-80
2022/04/02 08:36:24;;;;;;;15.80;8.27;;;;;;;;;;5030534;28;20041;-80
2022/04/02 08:38:51;;;;;;;14.52;10.20;;;;;;;;;;4998474;28;20060;-80
2022/04/02 08:41:37;;;;;;;13.70;8.23;;;;;;;;;;5014431;28;20075;-77
2022/04/02 08:44:27;;;;;;;9.07;6.07;;;;;;;;;;5025477;28;20042;-78
2022/04/02 08:47:07;;;;;;;9.10;7.30;;;;;;;;;;5016225;28;20045;-78
2022/04/02 08:49:41;;;;;;;11.75;7.93;;;;;;;;;;5024810;28;20068;-78
2022/04/02 08:52:08;;;;;;;15.05;8.05;;;;;;;;;;5018480;28;20045;-79
2022/04/02 08:54:39;;;;;;;10.00;7.38;;;;;;;;;;5020271;28;20060;-78
2022/04/02 08:57:26;;;;;;;15.65;8.20;;;;;;;;;;5022432;28;20121;-78
2022/04/02 09:00:05;;;;;;;12.73;7.50;;;;;;;;;;5022581;28;20442;-78
2022/04/02 09:02:32;;;;;;;17.05;10.90;;;;;;;;;;5018417;28;21196;-80
2022/04/02 09:05:08;;;;;;;14.15;7.38;;;;;;;;;;5023299;28;20147;-79
2022/04/02 09:07:40;;;;;;;9.88;7.65;;;;;;;;;;5017587;28;20038;-79
2022/04/02 09:10:07;;;;;;;12.07;7.78;;;;;;;;;;5023161;28;20292;-78
2022/04/02 09:12:45;;;;;;;11.43;8.00;;;;;;;;;;4999156;28;20049;-79
2022/04/02 09:15:15;;;;;;;10.38;7.55;;;;;;;;;;5008816;28;20051;-78
2022/04/02 09:18:03;;;;;;;11.52;7.97;;;;;;;;;;5011191;28;20048;-79
2022/04/02 09:20:56;;;;;;;9.93;7.85;;;;;;;;;;5006065;28;20156;-78
2022/04/02 09:23:35;;;;;;;11.52;8.13;;;;;;;;;;5007491;28;20046;-79
2022/04/02 09:26:21;;;;;;;10.43;7.80;;;;;;;;;;4990042;28;20387;-79
2022/04/02 09:29:03;;;;;;;11.20;7.00;;;;;;;;;;5008642;28;20424;-79
2022/04/02 09:31:40;;;;;;;13.25;8.30;;;;;;;;;;5004564;28;20052;-79
2022/04/02 09:34:26;;;;;;;9.32;7.32;;;;;;;;;;5011119;28;20572;-79
2022/04/02 09:37:00;;;;;;;10.52;7.32;;;;;;;;;;5011864;28;20444;-79
2022/04/02 09:39:50;;;;;;;14.43;7.78;;;;;;;;;;5006842;28;20038;-79
2022/04/02 09:42:17;;;;;;;9.65;7.65;;;;;;;;;;5010752;28;20104;-79
2022/04/02 09:44:48;;;;;;;13.73;7.43;;;;;;;;;;5011658;28;20041;-79
2022/04/02 09:47:24;;;;;;;14.60;7.32;;;;;;;;;;5012935;28;20041;-78
2022/04/02 09:50:08;;;;;;;9.15;6.57;;;;;;;;;;5009600;28;20051;-80
2022/04/02 09:52:37;;;;;;;7.65;6.13;;;;;;;;;;5008638;28;20042;-80
2022/04/02 09:55:11;;;;;;;13.60;7.65;;;;;;;;;;5010206;28;20058;-80
2022/04/02 09:57:51;;;;;;;12.40;6.93;;;;;;;;;;4995101;28;20068;-79
2022/04/02 10:00:20;;;;;;;7.70;6.25;;;;;;;;;;5017277;28;20638;-78
2022/04/02 10:03:00;;;;;;;12.30;8.32;;;;;;;;;;5021197;28;20073;-79
2022/04/02 10:05:40;;;;;;;14.48;8.30;;;;;;;;;;4977905;28;20042;-79
2022/04/02 10:08:12;;;;;;;9.80;8.80;;;;;;;;;;4990000;28;20049;-79
2022/04/02 10:10:42;;;;;;;11.55;9.07;;;;;;;;;;4999156;28;20063;-79
2022/04/02 10:13:09;;;;;;;11.30;9.25;;;;;;;;;;4986909;28;20176;-79
2022/04/02 10:15:42;;;;;;;13.25;10.80;;;;;;;;;;5015938;28;20123;-79
2022/04/02 10:18:11;;;;;;;11.32;8.25;;;;;;;;;;5018592;28;20046;-79
2022/04/02 10:21:05;;;;;;;10.60;8.88;;;;;;;;;;4992680;28;20050;-78
2022/04/02 10:23:35;;;;;;;14.70;9.10;;;;;;;;;;5007134;28;20550;-79
2022/04/02 10:26:04;;;;;;;13.98;10.95;;;;;;;;;;5012611;28;20084;-80
2022/04/02 10:28:34;;;;;;;10.95;8.73;;;;;;;;;;5008549;28;20037;-78
2022/04/02 10:31:01;;;;;;;11.43;9.20;;;;;;;;;;5013604;28;20041;-78
2022/04/02 10:33:36;;;;;;;11.82;9.57;;;;;;;;;;5014516;28;20038;-79
2022/04/02 10:36:08;;;;;;;9.43;8.35;;;;;;;;;;5010081;28;20362;-79
2022/04/02 10:38:40;;;;;;;19.83;9.32;;;;;;;;;;4974536;28;20128;-79
2022/04/02 10:41:07;;;;;;;13.10;9.48;;;;;;;;;;4996312;28;20091;-79
2022/04/02 10:43:53;;;;;;;13.05;9.00;;;;;;;;;;5012345;28;20050;-78
2022/04/02 10:46:24;;;;;;;9.93;8.30;;;;;;;;;;5006355;28;20052;-78
2022/04/02 10:48:52;;;;;;;10.68;8.18;;;;;;;;;;5004478;28;20180;-80
2022/04/02 10:51:22;;;;;;;12.18;9.43;;;;;;;;;;4992133;28;20068;-78
2022/04/02 10:53:55;;;;;;;10.10;9.10;;;;;;;;;;4987413;28;20048;-79
2022/04/02 10:56:27;;;;;;;10.00;8.13;;;;;;;;;;5011367;28;20697;-78
2022/04/02 10:58:55;;;;;;;;;;;;;;;;;;5003213;28;20073;-78
2022/04/02 11:01:23;;;;;;;9.73;8.10;;;;;;;;;;5011477;28;20027;-78
2022/04/02 11:03:57;;;;;;;8.70;7.90;;;;;;;;;;5015172;28;20041;-78
2022/04/02 11:06:46;;;;;;;14.05;9.57;;;;;;;;;;5015248;28;20588;-78
2022/04/02 11:09:25;;;;;;;12.98;9.90;;;;;;;;;;5012286;28;20049;-79
2022/04/02 11:11:53;;;;;;;10.65;9.55;;;;;;;;;;5009726;28;20046;-78
2022/04/02 11:14:21;;;;;;;9.05;8.13;;;;;;;;;;5008473;28;20042;-79
2022/04/02 11:16:48;;;;;;;10.68;8.55;;;;;;;;;;5014106;28;20046;-79
2022/04/02 11:22:06;;;;;;;8.50;7.25;;;;;;;;;;5015407;28;20311;-79
2022/04/02 11:24:46;;;;;;;8.45;7.38;;;;;;;;;;4997547;28;20396;-79
2022/04/02 11:27:18;;;;;;;9.38;8.48;;;;;;;;;;5013312;28;20053;-80
2022/04/02 11:29:49;;;;;;;7.55;6.85;;;;;;;;;;5014130;28;20136;-79
2022/04/02 11:32:24;;;;;;;10.75;7.80;;;;;;;;;;4991070;28;20354;-78
2022/04/02 11:34:52;;;;;;;9.55;7.88;;;;;;;;;;5012074;28;20041;-80
2022/04/02 11:37:27;;;;;;;16.55;12.30;;;;;;;;;;5004712;28;20192;-79
2022/04/02 11:39:59;;;;;;;10.95;8.20;;;;;;;;;;5013327;28;20127;-79
2022/04/02 11:42:27;;;;;;;11.00;9.13;;;;;;;;;;5014572;28;20120;-80
2022/04/02 11:44:55;;;;;;;9.90;7.78;;;;;;;;;;5011754;28;20497;-79
2022/04/02 11:47:27;;;;;;;7.05;6.32;;;;;;;;;;5011370;28;20057;-79
2022/04/02 11:50:02;;;;;;;10.25;7.25;;;;;;;;;;5011519;28;20037;-80
2022/04/02 11:52:48;;;;;;;9.35;6.88;;;;;;;;;;5014554;28;20049;-81
2022/04/02 11:55:16;;;;;;;7.47;6.82;;;;;;;;;;5013337;28;20052;-80
2022/04/02 11:58:10;;;;;;;6.88;5.95;;;;;;;;;;4985434;28;20414;-78
2022/04/02 12:00:39;;;;;;;9.73;6.53;;;;;;;;;;4994311;28;20510;-79
2022/04/02 12:03:22;;;;;;;5.85;5.25;;;;;;;;;;4995204;28;20045;-79
2022/04/02 12:05:50;;;;;;;6.25;5.65;;;;;;;;;;5009779;28;20030;-79
2022/04/02 12:08:31;;;;;;;5.40;4.90;;;;;;;;;;5012861;28;20406;-80
2022/04/02 12:11:00;;;;;;;6.75;6.05;;;;;;;;;;5010329;28;20049;-79
2022/04/02 12:13:27;;;;;;;5.93;5.43;;;;;;;;;;5012168;28;20046;-78
2022/04/02 12:16:03;;;;;;;6.45;5.85;;;;;;;;;;5010457;28;20053;-79
2022/04/02 12:18:30;;;;;;;5.63;5.20;;;;;;;;;;5101763;22;20520;-76
2022/04/02 12:21:04;;;;;;;6.53;5.90;;;;;;;;;;5036350;28;20049;-76
2022/04/02 12:23:33;;;;;;;7.55;6.85;;;;;;;;;;5032450;28;20041;-75
2022/04/02 12:26:02;;;;;;;6.32;5.80;;;;;;;;;;5032732;28;20044;-78
2022/04/02 12:28:30;;;;;;;7.32;6.63;;;;;;;;;;5038922;28;20220;-74
2022/04/02 12:31:07;;;;;;;7.18;6.50;;;;;;;;;;5039747;28;20500;-76
2022/04/02 12:33:35;;;;;;;6.38;5.47;;;;;;;;;;5019979;28;20140;-75
2022/04/02 12:36:09;;;;;;;7.13;5.18;;;;;;;;;;5016901;28;20524;-74
2022/04/02 12:38:38;;;;;;;6.82;5.97;;;;;;;;;;5036419;28;20408;-76
2022/04/02 12:41:24;;;;;;;7.07;5.97;;;;;;;;;;5019454;28;20161;-73
2022/04/02 12:43:58;;;;;;;6.18;5.68;;;;;;;;;;5037514;28;20068;-77
2022/04/02 12:46:27;;;;;;;6.45;5.88;;;;;;;;;;5005783;28;20564;-76
2022/04/02 12:48:55;;;;;;;6.75;6.15;;;;;;;;;;5035348;28;20459;-78
2022/04/02 12:51:25;;;;;;;7.18;6.47;;;;;;;;;;5028429;28;20779;-76
2022/04/02 12:53:58;;;;;;;7.30;6.70;;;;;;;;;;5024455;28;20055;-74
2022/04/02 12:56:28;;;;;;;7.60;6.90;;;;;;;;;;5015525;28;20123;-76
2022/04/02 12:58:56;;;;;;;8.02;7.32;;;;;;;;;;5013374;28;20081;-76
2022/04/02 13:01:28;;;;;;;7.55;6.85;;;;;;;;;;5032722;28;20053;-74
2022/04/02 13:04:00;;;;;;;5.70;5.20;;;;;;;;;;5034458;28;20441;-77
2022/04/02 13:06:29;;;;;;;6.55;6.00;;;;;;;;;;5001389;28;20302;-74
2022/04/02 13:09:01;;;;;;;7.40;6.72;;;;;;;;;;5032346;28;20041;-74
2022/04/02 13:11:32;;;;;;;7.13;6.53;;;;;;;;;;5017193;28;20052;-76
2022/04/02 13:14:03;;;;;;;7.55;6.85;;;;;;;;;;5016774;28;20363;-76
2022/04/02 13:16:35;;;;;;;7.63;6.93;;;;;;;;;;5013317;28;20250;-75
2022/04/02 13:21:51;;;;;;;7.03;6.40;;;;;;;;;;5026922;28;20040;-76
2022/04/02 13:24:27;;;;;;;7.72;7.00;;;;;;;;;;5039700;28;20139;-77
2022/04/02 13:27:08;;;;;;;6.03;5.53;;;;;;;;;;5036097;28;20037;-73
2022/04/02 13:29:47;;;;;;;7.82;7.13;;;;;;;;;;5035615;28;20115;-74
2022/04/02 13:32:23;;;;;;;6.30;5.70;;;;;;;;;;5039750;28;20076;-76
2022/04/02 13:35:23;;;;;;;7.03;6.38;;;;;;;;;;4915461;29;20059;-74
2022/04/02 13:38:09;;;;;;;6.55;5.95;;;;;;;;;;4927070;29;20055;-74
2022/04/02 13:40:39;;;;;;;6.85;5.97;;;;;;;;;;4925753;29;20070;-75
2022/04/02 13:43:08;;;;;;;6.45;5.47;;;;;;;;;;4919149;29;20567;-77
2022/04/02 13:45:37;;;;;;;6.63;5.85;;;;;;;;;;4923985;28;20098;-77
2022/04/02 13:48:08;;;;;;;9.18;7.53;;;;;;;;;;5045708;28;20052;-74
2022/04/02 13:50:40;;;;;;;8.17;7.47;;;;;;;;;;5046708;28;20053;-76
2022/04/02 13:53:08;;;;;;;10.98;7.63;;;;;;;;;;5042498;28;20045;-74
2022/04/02 13:55:37;;;;;;;6.85;5.97;;;;;;;;;;5039808;28;20045;-76
2022/04/02 13:58:06;;;;;;;7.30;6.60;;;;;;;;;;5040788;28;20370;-73
2022/04/02 14:00:39;;;;;;;6.03;5.43;;;;;;;;;;5046621;28;20476;-73
2022/04/02 14:03:07;;;;;;;8.90;8.00;;;;;;;;;;5038885;28;20568;-75
2022/04/02 14:05:40;;;;;;;9.52;8.27;;;;;;;;;;5039489;28;20055;-76
2022/04/02 14:08:14;;;;;;;15.52;13.85;;;;;;;;;;5040353;28;20382;-74
2022/04/02 14:10:45;;;;;;;10.30;9.20;;;;;;;;;;5022792;28;20067;-75
2022/04/02 14:13:18;;;;;;;11.70;9.02;;;;;;;;;;5039585;28;20042;-75
2022/04/02 14:15:57;;;;;;;9.23;8.32;;;;;;;;;;5040320;28;20052;-73
2022/04/02 14:18:28;;;;;;;9.02;8.13;;;;;;;;;;5033729;28;20831;-77
2022/04/02 14:20:58;;;;;;;7.93;7.20;;;;;;;;;;5020270;28;20045;-74
2022/04/02 14:23:47;;;;;;;6.93;6.28;;;;;;;;;;5037739;28;20052;-74
2022/04/02 14:26:18;;;;;;;7.22;6.53;;;;;;;;;;5038838;28;20523;-74
2022/04/02 14:28:50;;;;;;;7.67;6.47;;;;;;;;;;5040928;28;20140;-75
2022/04/02 14:32:02;;;;;;;12.70;7.45;;;;;;;;;;5019260;28;20049;-76
2022/04/02 14:34:46;;;;;;;8.68;7.88;;;;;;;;;;5033391;28;20042;-74
2022/04/02 14:37:32;;;;;;;8.77;7.43;;;;;;;;;;5044010;28;20064;-73
2022/04/02 14:40:03;;;;;;;10.20;8.90;;;;;;;;;;5021490;28;20210;-75
2022/04/02 14:42:36;;;;;;;8.43;7.63;;;;;;;;;;5022761;28;20084;-76
2022/04/02 14:45:39;;;;;;;9.57;8.52;;;;;;;;;;5008221;28;20720;-74
2022/04/02 14:48:22;;;;;;;9.52;8.15;;;;;;;;;;5024933;28;20128;-76
2022/04/02 14:50:53;;;;;;;10.68;9.57;;;;;;;;;;5023174;28;20148;-76
2022/04/02 14:53:39;;;;;;;10.13;9.13;;;;;;;;;;5031305;28;20068;-74
2022/04/02 14:56:07;;;;;;;9.15;8.15;;;;;;;;;;5040825;28;20543;-76
2022/04/02 14:58:43;;;;;;;10.02;8.75;;;;;;;;;;5045390;28;20060;-74
2022/04/02 15:01:29;;;;;;;13.00;10.13;;;;;;;;;;5043286;28;20041;-74
2022/04/02 15:04:15;;;;;;;9.75;8.77;;;;;;;;;;5041086;28;20118;-73
2022/04/02 15:07:01;;;;;;;11.50;9.45;;;;;;;;;;5044205;28;20037;-75
2022/04/02 15:09:48;;;;;;;10.05;9.05;;;;;;;;;;5039088;28;20120;-73
2022/04/02 15:12:19;;;;;;;12.00;9.27;;;;;;;;;;5025598;28;20156;-73